Time;durP1;ratioP1;P1;durP2;ratioP2;P2;SDS_P1;SDS_P2;PMS_P1;PMS_P2;Temp;Humidity;BMP_temperature;BMP_pressure;BME280_temperature;BME280_humidity;BME280_pressure;Samples;Min_cycle;Max_cycle;Signal;HPM_P1;HPM_P2
2021/11/19 00:00:11;;;;;;;22.45;12.70;;;;;;;8.46;85.19;100938.94;4987587;28;20038;-71
2021/11/19 00:02:36;;;;;;;24.00;15.50;;;;;;;8.49;85.31;100936.22;4989679;28;20041;-72
2021/11/19 00:05:02;;;;;;;26.98;13.15;;;;;;;8.47;85.51;100935.44;4990519;28;20026;-71
2021/11/19 00:07:28;;;;;;;18.10;12.52;;;;;;;8.44;85.42;100927.59;4991476;28;20113;-71
2021/11/19 00:09:53;;;;;;;25.33;14.88;;;;;;;8.44;85.33;100936.38;4991028;28;20652;-71
2021/11/19 00:12:19;;;;;;;26.73;15.45;;;;;;;8.47;85.95;100938.06;4989578;28;20035;-70
2021/11/19 00:14:44;;;;;;;24.23;13.07;;;;;;;8.46;85.92;100939.78;4972852;28;20034;-71
2021/11/19 00:17:10;;;;;;;27.73;13.68;;;;;;;8.49;85.68;100941.50;4992591;28;20114;-71
2021/11/19 00:19:41;;;;;;;21.77;12.85;;;;;;;8.50;85.28;100937.97;4997725;28;20047;-71
2021/11/19 00:22:09;;;;;;;24.40;14.48;;;;;;;8.49;85.17;100931.88;4998918;28;20030;-71
2021/11/19 00:24:36;;;;;;;24.83;13.98;;;;;;;8.51;85.64;100942.31;4998167;28;20053;-70
2021/11/19 00:27:03;;;;;;;24.20;14.18;;;;;;;8.52;85.37;100938.81;4978720;28;20124;-70
2021/11/19 00:29:28;;;;;;;44.28;13.43;;;;;;;8.49;85.04;100928.34;4991788;28;20508;-71
2021/11/19 00:31:54;;;;;;;24.75;13.73;;;;;;;8.43;85.38;100931.97;4997550;28;20042;-70
2021/11/19 00:34:21;;;;;;;22.75;13.82;;;;;;;8.42;85.76;100926.75;4995877;28;20030;-70
2021/11/19 00:36:46;;;;;;;20.83;13.90;;;;;;;8.43;85.16;100934.63;4987563;28;20081;-71
2021/11/19 00:39:15;;;;;;;26.27;13.10;;;;;;;8.42;85.78;100927.66;4988592;28;20045;-71
2021/11/19 00:41:43;;;;;;;27.60;12.70;;;;;;;8.45;85.66;100930.19;4988384;28;20026;-71
2021/11/19 00:44:11;;;;;;;26.30;13.05;;;;;;;8.43;85.69;100928.50;4987502;28;20120;-71
2021/11/19 00:46:40;;;;;;;22.08;13.23;;;;;;;8.37;86.04;100932.09;4988476;28;20564;-70
2021/11/19 00:49:07;;;;;;;25.35;11.73;;;;;;;8.40;85.61;100933.84;4971368;28;20046;-70
2021/11/19 00:51:40;;;;;;;28.73;12.88;;;;;;;8.42;85.75;100935.53;4988682;28;20088;-71
2021/11/19 00:54:06;;;;;;;21.42;12.55;;;;;;;8.44;85.87;100935.47;4988410;28;20042;-70
2021/11/19 00:56:40;;;;;;;26.73;13.75;;;;;;;8.43;85.85;100931.97;4988580;28;20027;-71
2021/11/19 00:59:07;;;;;;;21.95;12.52;;;;;;;8.44;85.84;100930.22;4987843;28;20044;-70
2021/11/19 01:01:36;;;;;;;21.10;13.00;;;;;;;8.43;86.07;100929.34;4988019;28;20026;-70
2021/11/19 01:04:04;;;;;;;20.90;11.80;;;;;;;8.45;85.73;100927.56;4988246;28;20042;-70
2021/11/19 01:06:30;;;;;;;29.23;13.10;;;;;;;8.44;86.25;100931.09;4988047;28;20035;-72
2021/11/19 01:08:57;;;;;;;23.40;12.55;;;;;;;8.47;86.18;100941.53;4988405;28;20037;-69
2021/11/19 01:11:25;;;;;;;23.15;14.25;;;;;;;8.47;86.11;100938.06;4987302;28;20707;-71
2021/11/19 01:13:53;;;;;;;17.10;13.32;;;;;;;8.46;85.79;100931.91;4979496;28;20040;-71
2021/11/19 01:16:40;;;;;;;30.60;13.60;;;;;;;8.47;86.33;100936.28;4971432;28;20033;-71
2021/11/19 01:19:15;;;;;;;22.95;12.63;;;;;;;8.47;86.04;100928.41;4988548;28;20109;-70
2021/11/19 01:21:51;;;;;;;24.23;12.32;;;;;;;8.51;86.18;100937.94;4963314;28;20125;-70
2021/11/19 01:24:20;;;;;;;21.88;13.35;;;;;;;8.52;86.18;100941.44;4992734;28;20054;-70
2021/11/19 01:26:47;;;;;;;24.98;13.82;;;;;;;8.48;86.45;100940.63;4988828;28;20030;-70
2021/11/19 01:29:15;;;;;;;19.67;13.18;;;;;;;8.49;86.16;100944.13;4988248;28;20034;-70
2021/11/19 01:31:57;;;;;;;26.38;14.65;;;;;;;8.53;86.07;100951.03;4969441;28;20133;-71
2021/11/19 01:34:23;;;;;;;26.77;14.45;;;;;;;8.51;86.36;100940.56;4987503;28;20038;-71
2021/11/19 01:36:48;;;;;;;25.75;14.73;;;;;;;8.49;85.99;100942.38;4987869;28;20053;-71
2021/11/19 01:39:17;;;;;;;26.48;14.23;;;;;;;8.51;86.52;100945.81;4986712;28;20121;-71
2021/11/19 01:41:48;;;;;;;22.08;12.75;;;;;;;8.54;85.84;100950.13;4986870;28;20030;-70
2021/11/19 01:44:27;;;;;;;26.00;15.95;;;;;;;8.52;85.83;100944.94;4987662;28;20027;-71
2021/11/19 01:46:55;;;;;;;20.90;13.95;;;;;;;8.53;86.32;100951.03;4987215;28;20065;-71
2021/11/19 01:49:22;;;;;;;28.85;14.40;;;;;;;8.52;86.75;100944.94;4988159;28;20124;-70
2021/11/19 01:51:50;;;;;;;22.88;14.07;;;;;;;8.50;86.58;100940.59;4970371;28;20030;-71
2021/11/19 01:54:27;;;;;;;27.25;16.60;;;;;;;8.49;87.01;100945.00;4986649;28;20502;-71
2021/11/19 01:56:58;;;;;;;21.30;14.27;;;;;;;8.49;87.21;100950.25;4969289;28;20157;-71
2021/11/19 01:59:29;;;;;;;20.45;13.70;;;;;;;8.54;86.49;100956.28;4987010;28;20117;-70
2021/11/19 02:02:01;;;;;;;22.40;13.68;;;;;;;8.57;86.63;100956.22;4960430;28;20062;-71
2021/11/19 02:04:32;;;;;;;21.98;14.95;;;;;;;8.60;86.94;100957.91;4986296;28;20034;-71
2021/11/19 02:06:59;;;;;;;20.40;14.70;;;;;;;8.54;87.12;100952.75;4968950;28;20093;-71
2021/11/19 02:09:59;;;;;;;21.77;14.43;;;;;;;8.53;87.41;100946.66;4986103;28;20038;-70
2021/11/19 02:12:36;;;;;;;28.23;13.57;;;;;;;8.54;87.28;100942.25;4985874;28;20042;-70
2021/11/19 02:15:21;;;;;;;26.77;15.02;;;;;;;8.55;87.26;100941.38;4986347;28;20034;-70
2021/11/19 02:17:50;;;;;;;22.50;12.82;;;;;;;8.54;87.84;100937.88;4985973;28;20038;-70
2021/11/19 02:20:25;;;;;;;21.50;14.23;;;;;;;8.59;87.54;100940.41;4985878;28;20678;-70
2021/11/19 02:22:54;;;;;;;22.95;13.85;;;;;;;8.63;87.73;100933.31;4987372;28;20494;-70
2021/11/19 02:25:36;;;;;;;19.65;13.32;;;;;;;8.65;87.35;100942.88;4984878;28;20533;-70
2021/11/19 02:28:11;;;;;;;19.25;13.70;;;;;;;8.69;87.15;100941.03;4985598;28;20042;-70
2021/11/19 02:30:50;;;;;;;25.58;13.68;;;;;;;8.69;86.86;100936.66;4986122;28;20038;-69
2021/11/19 02:33:18;;;;;;;25.88;15.07;;;;;;;8.71;86.66;100945.41;4969243;28;20068;-70
2021/11/19 02:35:49;;;;;;;24.35;12.52;;;;;;;8.76;87.54;100947.88;4986603;28;20065;-71
2021/11/19 02:38:16;;;;;;;17.83;13.00;;;;;;;8.76;86.52;100943.53;4986462;28;20568;-72
2021/11/19 02:40:43;;;;;;;25.15;13.27;;;;;;;8.75;87.11;100944.41;4985473;28;20121;-71
2021/11/19 02:43:25;;;;;;;17.27;11.57;;;;;;;8.77;87.08;100947.00;4986941;28;20042;-71
2021/11/19 02:45:52;;;;;;;18.55;12.43;;;;;;;8.76;87.00;100946.16;4986897;28;20042;-71
2021/11/19 02:48:21;;;;;;;17.30;12.20;;;;;;;8.78;87.20;100949.56;4985091;28;20030;-69
2021/11/19 02:50:49;;;;;;;20.05;12.38;;;;;;;8.78;87.07;100938.22;4985544;28;20667;-71
2021/11/19 02:53:15;;;;;;;24.52;13.88;;;;;;;8.72;87.27;100943.63;4986390;28;20810;-69
2021/11/19 02:55:44;;;;;;;18.48;12.63;;;;;;;8.72;87.33;100941.00;4987064;28;20039;-70
2021/11/19 02:58:13;;;;;;;23.13;12.90;;;;;;;8.76;87.30;100947.88;4986796;28;20027;-71
2021/11/19 03:00:52;;;;;;;16.73;12.27;;;;;;;8.81;87.27;100943.38;4985844;28;20125;-70
2021/11/19 03:03:18;;;;;;;22.30;12.93;;;;;;;8.85;86.78;100946.81;4986716;28;20035;-71
2021/11/19 03:05:43;;;;;;;19.13;12.77;;;;;;;8.84;86.86;100945.09;4986065;28;20099;-71
2021/11/19 03:10:49;;;;;;;19.50;12.77;;;;;;;8.85;86.97;100946.81;5058335;22;20049;-75
2021/11/19 03:13:16;;;;;;;16.80;11.80;;;;;;;8.83;87.19;100944.22;5027922;28;20045;-75
2021/11/19 03:15:45;;;;;;;20.45;12.75;;;;;;;8.83;86.79;100938.97;5029416;28;20032;-75
2021/11/19 03:18:15;;;;;;;18.85;12.88;;;;;;;8.82;87.48;100951.25;5027186;28;20083;-74
2021/11/19 03:20:44;;;;;;;18.38;12.68;;;;;;;8.81;87.12;100952.16;5048023;28;20082;-77
2021/11/19 03:23:10;;;;;;;18.35;11.38;;;;;;;8.80;86.95;100954.81;5049253;28;20403;-75
2021/11/19 03:25:38;;;;;;;17.85;11.70;;;;;;;8.82;86.99;100953.03;5049205;28;20112;-76
2021/11/19 03:28:09;;;;;;;18.77;12.43;;;;;;;8.80;86.83;100954.81;5048933;28;20052;-75
2021/11/19 03:30:38;;;;;;;16.30;11.93;;;;;;;8.82;87.49;100958.28;5048493;28;20033;-76
2021/11/19 03:33:04;;;;;;;17.85;11.30;;;;;;;8.79;86.99;100948.69;5049599;28;20660;-75
2021/11/19 03:35:30;;;;;;;14.93;11.27;;;;;;;8.83;87.58;100949.47;5049163;28;20032;-75
2021/11/19 03:37:57;;;;;;;26.15;13.38;;;;;;;8.82;87.36;100948.63;5048827;28;20025;-74
2021/11/19 03:40:29;;;;;;;18.65;12.10;;;;;;;8.81;87.17;100938.13;5048347;28;20486;-74
2021/11/19 03:42:59;;;;;;;23.58;14.35;;;;;;;8.81;87.65;100933.75;5049045;28;20078;-75
2021/11/19 03:45:28;;;;;;;18.30;10.40;;;;;;;8.82;88.00;100932.84;5047604;28;20090;-74
2021/11/19 03:47:54;;;;;;;17.30;11.55;;;;;;;8.83;87.38;100931.06;5049389;28;20484;-75
2021/11/19 03:50:28;;;;;;;17.35;11.10;;;;;;;8.85;87.46;100929.28;5048171;28;20041;-75
2021/11/19 03:52:54;;;;;;;15.77;10.27;;;;;;;8.85;87.32;100923.16;5048666;28;20029;-75
2021/11/19 03:55:24;;;;;;;12.68;9.43;;;;;;;8.84;87.21;100924.94;5048793;28;20036;-75
2021/11/19 03:57:50;;;;;;;13.20;10.50;;;;;;;8.88;87.37;100937.09;5048679;28;20131;-74
2021/11/19 04:00:21;;;;;;;17.23;9.85;;;;;;;8.92;87.38;100935.25;5048170;28;20036;-75
2021/11/19 04:02:47;;;;;;;17.98;11.75;;;;;;;8.95;87.38;100938.66;5048602;28;20040;-75
2021/11/19 04:05:13;;;;;;;18.77;11.70;;;;;;;8.97;86.98;100931.63;5048720;28;20029;-76
2021/11/19 04:07:38;;;;;;;14.90;10.93;;;;;;;8.98;87.52;100932.47;5048627;28;20112;-75
2021/11/19 04:10:06;;;;;;;16.10;10.23;;;;;;;9.02;86.97;100926.25;5049283;28;20112;-74
2021/11/19 04:12:32;;;;;;;14.32;10.63;;;;;;;8.99;86.65;100924.56;5051186;28;20029;-77
2021/11/19 04:14:58;;;;;;;12.98;10.68;;;;;;;8.99;87.12;100921.91;5049700;28;20035;-76
2021/11/19 04:17:23;;;;;;;13.40;10.77;;;;;;;8.97;87.06;100925.50;5011446;28;20034;-76
2021/11/19 04:19:48;;;;;;;14.48;9.05;;;;;;;8.97;86.98;100926.34;5028029;28;20045;-76
2021/11/19 04:22:17;;;;;;;13.52;9.75;;;;;;;8.98;87.51;100914.06;5029106;28;20076;-74
2021/11/19 04:24:52;;;;;;;18.10;12.10;;;;;;;8.99;86.97;100921.06;5030308;28;20089;-76
2021/11/19 04:27:18;;;;;;;;;;;;;;;8.98;87.72;100922.84;5031309;28;20168;-76
2021/11/19 04:29:43;;;;;;;18.00;11.17;;;;;;;8.96;87.66;100913.25;5038762;28;19949;-76
2021/11/19 04:32:09;;;;;;;16.48;9.82;;;;;;;9.00;87.47;100917.53;5030370;28;20482;-75
2021/11/19 04:34:37;;;;;;;13.52;9.35;;;;;;;9.01;87.34;100920.13;5029514;28;20031;-74
2021/11/19 04:37:02;;;;;;;12.88;9.00;;;;;;;9.00;86.72;100920.16;5029712;28;20100;-77
2021/11/19 04:39:28;;;;;;;13.23;9.70;;;;;;;8.99;86.83;100928.97;5029157;28;20045;-76
2021/11/19 04:41:54;;;;;;;14.43;10.88;;;;;;;8.96;87.25;100924.63;5029750;28;20057;-75
2021/11/19 04:44:20;;;;;;;14.63;10.18;;;;;;;8.96;87.44;100919.38;5030817;28;20037;-75
2021/11/19 04:46:47;;;;;;;13.30;9.18;;;;;;;8.97;87.19;100926.34;5028804;28;20025;-76
2021/11/19 04:49:13;;;;;;;13.60;10.68;;;;;;;8.97;87.27;100922.88;5027690;28;20030;-76
2021/11/19 04:51:40;;;;;;;14.60;10.85;;;;;;;8.98;86.87;100921.94;5026975;28;20041;-76
2021/11/19 04:54:07;;;;;;;12.57;9.68;;;;;;;8.97;87.30;100928.97;5027209;28;20208;-73
2021/11/19 04:56:33;;;;;;;13.48;10.00;;;;;;;8.94;86.98;100923.81;5026482;28;20033;-77
2021/11/19 04:58:59;;;;;;;15.65;10.23;;;;;;;8.96;87.01;100929.03;5026845;28;20450;-77
2021/11/19 05:01:29;;;;;;;15.10;10.65;;;;;;;8.94;86.83;100929.06;5027827;28;20492;-74
2021/11/19 05:03:54;;;;;;;13.70;10.35;;;;;;;8.94;86.96;100928.22;5027385;28;20037;-74
2021/11/19 05:06:20;;;;;;;15.52;11.45;;;;;;;8.92;87.85;100916.84;5027330;28;20092;-75
2021/11/19 05:08:46;;;;;;;12.73;10.07;;;;;;;8.94;87.42;100928.22;5026739;28;20484;-74
2021/11/19 05:11:16;;;;;;;14.68;10.27;;;;;;;8.94;87.65;100920.31;5027346;28;20037;-74
2021/11/19 05:13:42;;;;;;;14.82;10.10;;;;;;;8.95;87.65;100922.03;5026977;28;20114;-75
2021/11/19 05:16:10;;;;;;;14.65;10.65;;;;;;;8.97;87.60;100920.22;5027584;28;20108;-75
2021/11/19 05:18:36;;;;;;;13.07;9.90;;;;;;;8.97;87.21;100928.13;5027025;28;20052;-75
2021/11/19 05:21:03;;;;;;;13.15;9.55;;;;;;;8.95;87.55;100920.25;5027594;28;20042;-75
2021/11/19 05:23:30;;;;;;;11.30;8.70;;;;;;;8.98;87.03;100932.47;5027122;28;20037;-75
2021/11/19 05:25:56;;;;;;;12.65;10.27;;;;;;;8.97;87.75;100931.63;5027577;28;20033;-75
2021/11/19 05:28:23;;;;;;;14.50;10.30;;;;;;;8.99;87.09;100934.22;5038899;28;20395;-75
2021/11/19 05:30:48;;;;;;;18.02;11.93;;;;;;;8.99;86.84;100934.22;5046615;28;20063;-75
2021/11/19 05:33:17;;;;;;;13.23;9.77;;;;;;;8.99;86.97;100929.81;5046692;28;20396;-75
2021/11/19 05:35:43;;;;;;;15.80;10.23;;;;;;;8.97;87.34;100931.63;5038115;28;20037;-75
2021/11/19 05:38:10;;;;;;;10.23;9.15;;;;;;;8.99;87.64;100926.31;5047483;28;20029;-73
2021/11/19 05:40:36;;;;;;;13.52;9.77;;;;;;;8.98;87.96;100938.63;5045064;28;20044;-74
2021/11/19 05:43:03;;;;;;;14.75;10.55;;;;;;;9.00;87.33;100928.91;5047856;28;20439;-73
2021/11/19 05:45:30;;;;;;;14.52;11.10;;;;;;;9.02;87.86;100928.88;5047288;28;20407;-73
2021/11/19 05:47:56;;;;;;;12.93;10.38;;;;;;;9.05;86.96;100939.31;5047265;28;20053;-74
2021/11/19 05:50:24;;;;;;;12.60;10.25;;;;;;;9.06;87.51;100933.16;5048030;28;20072;-75
2021/11/19 05:52:52;;;;;;;15.57;11.43;;;;;;;9.04;87.33;100937.59;5047620;28;20033;-75
2021/11/19 05:55:20;;;;;;;12.07;9.30;;;;;;;9.05;87.59;100941.94;5047271;28;20031;-75
2021/11/19 05:57:46;;;;;;;13.38;10.63;;;;;;;9.07;87.19;100941.91;5046130;28;20040;-75
2021/11/19 06:00:17;;;;;;;14.75;10.52;;;;;;;9.05;86.92;100944.56;5046023;28;20049;-74
2021/11/19 06:02:43;;;;;;;15.02;10.75;;;;;;;9.06;87.26;100943.69;5046917;28;20469;-74
2021/11/19 06:05:11;;;;;;;12.35;9.73;;;;;;;9.08;87.57;100941.88;5047105;28;20105;-75
2021/11/19 06:07:36;;;;;;;13.52;9.32;;;;;;;9.07;87.90;100944.53;5047435;28;20032;-74
2021/11/19 06:10:06;;;;;;;16.15;11.38;;;;;;;9.09;87.18;100940.13;5047771;28;20506;-75
2021/11/19 06:12:38;;;;;;;13.85;9.95;;;;;;;9.12;87.35;100947.94;5048867;28;20043;-78
2021/11/19 06:15:10;;;;;;;15.00;11.35;;;;;;;9.13;87.20;100937.38;5047325;28;20063;-77
2021/11/19 06:17:39;;;;;;;15.38;10.50;;;;;;;9.13;86.91;100941.75;5047002;28;20361;-75
2021/11/19 06:20:30;;;;;;;14.10;10.10;;;;;;;9.13;87.64;100949.66;5045900;28;20140;-77
2021/11/19 06:23:03;;;;;;;14.82;11.30;;;;;;;9.14;87.42;100948.75;5025945;28;20109;-76
2021/11/19 06:25:32;;;;;;;12.95;8.98;;;;;;;9.15;87.47;100948.69;5026727;28;20125;-75
2021/11/19 06:28:02;;;;;;;16.58;12.43;;;;;;;9.09;87.64;100953.28;5025894;28;20029;-75
2021/11/19 06:30:29;;;;;;;11.77;9.18;;;;;;;9.10;87.93;100944.47;5026909;28;20037;-74
2021/11/19 06:32:55;;;;;;;13.88;10.77;;;;;;;9.09;87.42;100937.50;5027571;28;20040;-74
2021/11/19 06:35:20;;;;;;;15.75;11.63;;;;;;;9.07;87.75;100945.41;5027006;28;20141;-75
2021/11/19 06:37:46;;;;;;;13.35;9.95;;;;;;;9.08;87.79;100948.91;5027503;28;20095;-74
2021/11/19 06:40:23;;;;;;;12.23;9.73;;;;;;;9.13;87.99;100953.16;5026518;28;20029;-75
2021/11/19 06:42:48;;;;;;;11.05;8.95;;;;;;;9.17;87.33;100946.91;5031145;28;20044;-74
2021/11/19 06:45:15;;;;;;;14.25;10.50;;;;;;;9.21;87.33;100948.56;5031016;28;20030;-76
2021/11/19 06:47:42;;;;;;;11.05;9.57;;;;;;;9.24;87.43;100950.25;5031804;28;20057;-74
2021/11/19 06:50:10;;;;;;;13.00;10.40;;;;;;;9.23;86.87;100952.03;5029134;28;20072;-76
2021/11/19 06:52:36;;;;;;;10.20;8.65;;;;;;;9.23;87.51;100957.28;5030986;28;20041;-74
2021/11/19 06:55:03;;;;;;;10.65;9.18;;;;;;;9.24;86.80;100955.53;5031980;28;20662;-75
2021/11/19 06:57:29;;;;;;;11.05;8.15;;;;;;;9.23;86.93;100962.56;5045032;28;20040;-74
2021/11/19 06:59:54;;;;;;;11.48;8.70;;;;;;;9.20;87.11;100965.25;5037200;28;20034;-74
2021/11/19 07:02:19;;;;;;;12.80;8.82;;;;;;;9.19;86.92;100962.66;5032252;28;20041;-74
2021/11/19 07:04:45;;;;;;;10.68;8.60;;;;;;;9.21;86.93;100969.63;5031308;28;20026;-71
2021/11/19 07:07:10;;;;;;;13.93;9.02;;;;;;;9.21;87.21;100979.28;5032100;28;20067;-70
2021/11/19 07:09:37;;;;;;;14.43;10.18;;;;;;;9.24;86.87;100987.09;5031918;28;20033;-69
2021/11/19 07:12:06;;;;;;;13.30;9.82;;;;;;;9.23;87.28;100990.63;5032454;28;20125;-72
2021/11/19 07:14:31;;;;;;;13.70;9.95;;;;;;;9.23;86.81;100991.50;5033486;28;20038;-70
2021/11/19 07:16:57;;;;;;;11.43;9.50;;;;;;;9.26;87.02;100994.97;5031873;28;20048;-71
2021/11/19 07:19:23;;;;;;;12.10;8.65;;;;;;;9.26;87.27;100993.19;5029722;28;20115;-71
2021/11/19 07:21:53;;;;;;;10.10;8.02;;;;;;;9.29;86.50;100993.09;5037048;28;20098;-71
2021/11/19 07:24:19;;;;;;;12.52;9.10;;;;;;;9.29;86.79;100992.25;5048549;28;20029;-69
2021/11/19 07:26:45;;;;;;;8.85;7.40;;;;;;;9.26;86.72;100989.69;5049976;28;20040;-69
2021/11/19 07:29:11;;;;;;;11.63;9.57;;;;;;;9.26;86.71;100993.19;5049572;28;20017;-70
2021/11/19 07:31:36;;;;;;;11.05;8.18;;;;;;;9.26;86.91;100995.81;5049776;28;20103;-71
2021/11/19 07:34:02;;;;;;;11.52;8.80;;;;;;;9.31;87.41;100993.94;5049761;28;20472;-70
2021/11/19 07:36:27;;;;;;;13.80;8.30;;;;;;;9.33;86.50;101005.28;5050525;28;20202;-68
2021/11/19 07:38:55;;;;;;;12.57;9.82;;;;;;;9.34;86.69;100993.00;5049290;28;20372;-71
2021/11/19 07:41:21;;;;;;;10.95;9.27;;;;;;;9.34;87.06;100995.63;5049445;28;20047;-69
2021/11/19 07:43:47;;;;;;;10.32;9.00;;;;;;;9.33;86.51;100997.41;5049750;28;20045;-70
2021/11/19 07:46:16;;;;;;;9.00;8.07;;;;;;;9.34;87.19;100998.25;5039385;28;20883;-70
2021/11/19 07:48:42;;;;;;;11.50;8.60;;;;;;;9.34;86.66;100996.50;5004990;28;20073;-70
2021/11/19 07:51:12;;;;;;;11.23;8.80;;;;;;;9.35;86.60;101006.13;4996696;28;20501;-69
2021/11/19 07:53:38;;;;;;;11.98;9.05;;;;;;;9.38;86.93;101010.44;5009742;28;20037;-71
2021/11/19 07:56:05;;;;;;;13.20;10.00;;;;;;;9.38;86.65;101005.19;5017727;28;20033;-69
2021/11/19 07:58:31;;;;;;;11.45;8.07;;;;;;;9.40;86.73;101003.34;5015159;28;20125;-69
2021/11/19 08:00:57;;;;;;;9.88;8.65;;;;;;;9.40;86.28;101013.88;5017067;28;20041;-69
2021/11/19 08:03:23;;;;;;;9.98;7.95;;;;;;;9.40;86.45;101009.50;5017490;28;20037;-69
2021/11/19 08:05:52;;;;;;;10.95;9.00;;;;;;;9.38;86.61;101008.69;5017015;28;20087;-74
2021/11/19 08:08:18;;;;;;;8.50;7.20;;;;;;;9.37;86.92;101008.69;5017533;28;20041;-74
2021/11/19 08:10:44;;;;;;;12.75;9.10;;;;;;;9.36;86.79;101013.09;5011182;28;20048;-74
2021/11/19 08:13:10;;;;;;;11.82;8.82;;;;;;;9.37;87.02;101014.81;5017774;28;20064;-75
2021/11/19 08:15:36;;;;;;;9.93;8.73;;;;;;;9.37;86.69;101006.06;5016788;28;20107;-74
2021/11/19 08:18:09;;;;;;;11.57;9.13;;;;;;;9.35;86.72;101010.50;5016355;28;20763;-75
2021/11/19 08:20:38;;;;;;;12.63;9.77;;;;;;;9.36;86.55;101009.63;5015895;28;20049;-75
2021/11/19 08:23:06;;;;;;;11.23;8.80;;;;;;;9.39;86.45;101007.75;5017571;28;20042;-74
2021/11/19 08:25:32;;;;;;;10.93;8.95;;;;;;;9.39;86.18;101006.91;5016692;28;20029;-75
2021/11/19 08:27:58;;;;;;;12.23;8.43;;;;;;;9.42;86.37;101014.72;5016024;28;20512;-74
2021/11/19 08:30:33;;;;;;;13.40;8.65;;;;;;;9.42;86.13;101009.44;5016911;28;20041;-76
2021/11/19 08:33:00;;;;;;;10.23;8.32;;;;;;;9.41;85.65;101013.00;5020242;28;20924;-76
2021/11/19 08:35:27;;;;;;;9.38;8.10;;;;;;;9.44;86.34;101007.66;5018460;28;20128;-75
2021/11/19 08:37:54;;;;;;;9.23;7.53;;;;;;;9.43;86.12;100995.41;5019001;28;20701;-76
2021/11/19 08:40:22;;;;;;;8.63;7.20;;;;;;;9.44;86.09;101008.50;5017396;28;20049;-76
2021/11/19 08:42:48;;;;;;;9.68;7.28;;;;;;;9.46;86.33;100997.94;5017659;28;20077;-76
2021/11/19 08:45:17;;;;;;;9.77;8.05;;;;;;;9.43;86.39;100987.50;5017793;28;20132;-74
2021/11/19 08:47:45;;;;;;;9.25;7.50;;;;;;;9.46;86.34;100998.81;5017464;28;20033;-75
2021/11/19 08:50:11;;;;;;;9.32;7.43;;;;;;;9.53;86.09;100991.63;5016333;28;20737;-75
2021/11/19 08:52:37;;;;;;;10.05;8.23;;;;;;;9.55;86.02;100992.47;5017473;28;20045;-73
2021/11/19 08:55:05;;;;;;;8.70;7.85;;;;;;;9.60;85.89;100997.63;5018547;28;20132;-76
2021/11/19 08:57:31;;;;;;;10.45;7.28;;;;;;;9.61;85.51;100999.34;5018074;28;20067;-73
2021/11/19 08:59:56;;;;;;;10.25;8.13;;;;;;;9.61;85.65;100994.94;5016623;28;20061;-75
2021/11/19 09:02:24;;;;;;;9.02;6.90;;;;;;;9.63;85.42;100997.53;4999625;28;20049;-74
2021/11/19 09:04:50;;;;;;;12.68;7.43;;;;;;;9.67;85.35;101004.44;5017288;28;20029;-75
2021/11/19 09:07:16;;;;;;;8.80;5.90;;;;;;;9.64;85.55;100996.63;5018840;28;20587;-74
2021/11/19 09:09:44;;;;;;;7.25;6.28;;;;;;;9.67;85.25;101002.69;5016932;28;20100;-73
2021/11/19 09:12:10;;;;;;;7.93;6.30;;;;;;;9.71;85.25;101006.09;5018538;28;20067;-75
2021/11/19 09:14:36;;;;;;;9.10;6.93;;;;;;;9.70;85.09;100993.84;5017567;28;20133;-76
2021/11/19 09:17:24;;;;;;;13.23;8.50;;;;;;;9.76;84.84;100996.28;5019617;28;20112;-74
2021/11/19 09:20:09;;;;;;;8.05;7.03;;;;;;;9.74;85.40;101003.38;5034918;28;20095;-73
2021/11/19 09:22:45;;;;;;;6.43;5.68;;;;;;;9.76;84.98;101009.47;5036342;28;20024;-74
2021/11/19 09:25:13;;;;;;;9.60;6.45;;;;;;;9.81;85.13;101007.56;5034970;28;20102;-74
2021/11/19 09:27:40;;;;;;;7.57;6.20;;;;;;;9.85;85.01;101008.38;5035211;28;20060;-74
2021/11/19 09:30:16;;;;;;;10.25;8.05;;;;;;;9.89;84.46;101010.00;5034975;28;20121;-74
2021/11/19 09:32:48;;;;;;;9.55;7.40;;;;;;;9.92;84.81;101012.56;5035536;28;20040;-74
2021/11/19 09:35:14;;;;;;;9.00;7.70;;;;;;;9.87;84.20;101022.38;5035891;28;20071;-73
2021/11/19 09:37:41;;;;;;;8.85;7.07;;;;;;;9.86;84.63;101018.84;5035749;28;20488;-76
2021/11/19 09:40:09;;;;;;;8.48;5.65;;;;;;;9.86;84.85;101025.88;5036017;28;20508;-74
2021/11/19 09:42:43;;;;;;;7.45;6.65;;;;;;;9.89;84.46;101023.16;5023964;28;20040;-76
2021/11/19 09:45:36;;;;;;;8.30;6.68;;;;;;;9.90;84.20;101030.19;5020617;28;20041;-75
2021/11/19 09:48:29;;;;;;;8.65;6.60;;;;;;;9.87;84.60;101025.00;5022174;28;20068;-75
2021/11/19 09:51:13;;;;;;;8.10;7.05;;;;;;;9.89;85.07;101031.06;5024818;28;20037;-75
2021/11/19 09:54:00;;;;;;;9.35;6.88;;;;;;;9.88;85.04;101032.84;5021297;28;20874;-74
2021/11/19 09:56:56;;;;;;;7.70;6.78;;;;;;;9.88;85.37;101039.88;5021899;28;20049;-76
2021/11/19 09:59:33;;;;;;;7.03;6.30;;;;;;;9.88;85.25;101032.84;4979643;28;20037;-76
2021/11/19 10:02:11;;;;;;;11.60;8.07;;;;;;;9.90;85.17;101032.81;5017006;28;20119;-77
2021/11/19 10:04:56;;;;;;;10.65;7.72;;;;;;;9.92;85.19;101038.91;5019791;28;20112;-74
2021/11/19 10:07:35;;;;;;;9.90;6.75;;;;;;;9.96;85.62;101037.91;5018597;28;20041;-75
2021/11/19 10:10:25;;;;;;;12.63;6.95;;;;;;;9.99;84.98;101035.22;5016748;28;20100;-72
2021/11/19 10:13:14;;;;;;;9.02;6.80;;;;;;;10.02;85.45;101039.53;5015401;28;20036;-74
2021/11/19 10:16:02;;;;;;;10.88;7.97;;;;;;;10.05;84.99;101031.53;5015232;28;20688;-74
2021/11/19 10:18:47;;;;;;;9.48;7.80;;;;;;;10.06;85.34;101031.47;5017047;28;20041;-73
2021/11/19 10:21:15;;;;;;;15.60;7.22;;;;;;;10.10;85.23;101033.13;5033568;28;20033;-72
2021/11/19 10:23:48;;;;;;;10.52;7.40;;;;;;;10.14;85.30;101030.41;5014115;28;20038;-75
2021/11/19 10:26:33;;;;;;;11.07;6.90;;;;;;;10.21;84.95;101024.06;5015907;28;20417;-73
2021/11/19 10:29:30;;;;;;;8.13;6.90;;;;;;;10.23;84.94;101028.38;5016644;28;20068;-74
2021/11/19 10:31:59;;;;;;;10.70;7.93;;;;;;;10.24;84.91;101027.50;4966140;28;20076;-74
2021/11/19 10:34:39;;;;;;;11.57;8.85;;;;;;;10.28;84.71;101026.50;5006487;28;20037;-73
2021/11/19 10:37:16;;;;;;;14.52;9.95;;;;;;;10.33;84.53;101026.38;5009728;28;20060;-74
2021/11/19 10:40:07;;;;;;;13.10;8.30;;;;;;;10.36;84.93;101022.81;5003367;28;20092;-72
2021/11/19 10:43:05;;;;;;;9.95;7.88;;;;;;;10.44;84.33;101026.09;4984549;28;20232;-74
2021/11/19 10:45:55;;;;;;;10.82;8.35;;;;;;;10.47;84.23;101026.88;4995384;28;20034;-75
2021/11/19 10:48:53;;;;;;;10.82;8.98;;;;;;;10.47;83.72;101029.50;5010281;28;20033;-73
2021/11/19 10:51:47;;;;;;;11.07;8.90;;;;;;;10.47;83.90;101021.59;4995101;28;20141;-70
2021/11/19 10:54:24;;;;;;;11.27;8.80;;;;;;;10.50;83.99;101036.47;4994746;28;20049;-73
2021/11/19 10:56:55;;;;;;;11.82;9.15;;;;;;;10.49;83.74;101025.06;4995704;28;20069;-74
2021/11/19 10:59:31;;;;;;;11.27;9.13;;;;;;;10.48;83.85;101030.34;5001773;28;20068;-75
2021/11/19 11:02:02;;;;;;;;;;;;;;;10.48;83.75;101028.59;5010315;28;20349;-73
2021/11/19 11:04:50;;;;;;;10.70;8.13;;;;;;;10.52;83.50;101032.00;5017737;28;19951;-73
2021/11/19 11:07:22;;;;;;;12.00;10.25;;;;;;;10.52;83.70;101027.59;5024681;28;20560;-72
2021/11/19 11:09:57;;;;;;;18.40;9.07;;;;;;;10.55;83.82;101028.41;5026255;28;20088;-72
2021/11/19 11:12:34;;;;;;;11.68;8.52;;;;;;;10.57;83.66;101027.47;5033586;28;20463;-73
2021/11/19 11:15:23;;;;;;;13.32;11.75;;;;;;;10.63;83.55;101026.41;5048734;28;20039;-72
2021/11/19 11:18:09;;;;;;;12.32;9.68;;;;;;;10.62;83.35;101027.34;5032758;28;20029;-73
2021/11/19 11:20:41;;;;;;;10.70;9.60;;;;;;;10.61;83.39;101021.19;5028773;28;20040;-73
2021/11/19 11:23:31;;;;;;;11.27;10.07;;;;;;;10.60;83.37;101015.97;5047898;28;20029;-73
2021/11/19 11:26:13;;;;;;;14.75;11.18;;;;;;;10.63;83.23;101013.22;5047639;28;20134;-72
2021/11/19 11:28:51;;;;;;;11.52;10.07;;;;;;;10.65;83.22;101011.41;5050777;28;20048;-73
2021/11/19 11:31:21;;;;;;;13.13;10.68;;;;;;;10.65;82.94;101009.63;5052423;28;20039;-72
2021/11/19 11:34:18;;;;;;;17.83;13.20;;;;;;;10.71;82.92;101011.25;5051203;28;20029;-72
2021/11/19 11:37:21;;;;;;;11.98;10.57;;;;;;;10.77;83.00;101008.41;5050950;28;20048;-72
2021/11/19 11:39:56;;;;;;;21.73;12.05;;;;;;;10.80;82.41;101005.66;5050144;28;20140;-74